sensor_id;sensor_type;location;lat;lon;timestamp;pressure;altitude;pressure_sealevel;temperature;humidity
62592;BME280;48659;41.622;2.276;2022-07-10T00:00:59;100164.70;;;24.65;43.79
62592;BME280;48659;41.622;2.276;2022-07-10T00:03:27;100157.31;;;25.85;41.54
62592;BME280;48659;41.622;2.276;2022-07-10T00:05:54;100155.39;;;25.51;40.92
62592;BME280;48659;41.622;2.276;2022-07-10T00:08:21;100162.47;;;23.84;43.95
62592;BME280;48659;41.622;2.276;2022-07-10T00:10:49;100161.31;;;24.49;44.27
62592;BME280;48659;41.622;2.276;2022-07-10T00:13:17;100164.94;;;23.93;43.51
62592;BME280;48659;41.622;2.276;2022-07-10T00:15:44;100156.95;;;25.37;41.95
62592;BME280;48659;41.622;2.276;2022-07-10T00:18:12;100157.80;;;24.80;42.41
62592;BME280;48659;41.622;2.276;2022-07-10T00:20:38;100158.05;;;22.12;47.54
62592;BME280;48659;41.622;2.276;2022-07-10T00:23:06;100156.91;;;22.38;47.01
62592;BME280;48659;41.622;2.276;2022-07-10T00:25:33;100155.73;;;22.43;47.54
62592;BME280;48659;41.622;2.276;2022-07-10T00:28:01;100152.45;;;22.05;47.31
62592;BME280;48659;41.622;2.276;2022-07-10T00:30:29;100145.63;;;23.49;44.73
62592;BME280;48659;41.622;2.276;2022-07-10T00:33:05;100148.85;;;21.48;46.90
62592;BME280;48659;41.622;2.276;2022-07-10T00:35:32;100149.32;;;21.53;48.13
62592;BME280;48659;41.622;2.276;2022-07-10T00:38:00;100149.12;;;22.00;46.89
62592;BME280;48659;41.622;2.276;2022-07-10T00:40:27;100146.41;;;22.35;47.23
62592;BME280;48659;41.622;2.276;2022-07-10T00:42:54;100139.02;;;23.08;46.13
62592;BME280;48659;41.622;2.276;2022-07-10T00:45:22;100136.00;;;22.71;45.81
62592;BME280;48659;41.622;2.276;2022-07-10T00:47:50;100134.47;;;23.65;44.29
62592;BME280;48659;41.622;2.276;2022-07-10T00:50:17;100130.98;;;23.63;43.99
62592;BME280;48659;41.622;2.276;2022-07-10T00:52:46;100132.26;;;23.47;44.85
62592;BME280;48659;41.622;2.276;2022-07-10T00:55:14;100132.08;;;23.36;45.08
62592;BME280;48659;41.622;2.276;2022-07-10T00:57:41;100133.28;;;22.65;46.51
62592;BME280;48659;41.622;2.276;2022-07-10T01:00:09;100135.28;;;21.98;47.42
62592;BME280;48659;41.622;2.276;2022-07-10T01:02:41;100133.11;;;21.71;48.14
62592;BME280;48659;41.622;2.276;2022-07-10T01:05:09;100132.54;;;21.95;48.98
62592;BME280;48659;41.622;2.276;2022-07-10T01:07:37;100130.42;;;21.85;49.73
62592;BME280;48659;41.622;2.276;2022-07-10T01:10:05;100127.39;;;22.51;47.31
62592;BME280;48659;41.622;2.276;2022-07-10T01:12:32;100122.72;;;22.61;48.07
62592;BME280;48659;41.622;2.276;2022-07-10T01:15:00;100122.55;;;23.07;46.77
62592;BME280;48659;41.622;2.276;2022-07-10T01:17:30;100116.31;;;23.72;45.12
62592;BME280;48659;41.622;2.276;2022-07-10T01:19:58;100117.68;;;24.16;44.08
62592;BME280;48659;41.622;2.276;2022-07-10T01:22:31;100115.52;;;23.92;44.77
62592;BME280;48659;41.622;2.276;2022-07-10T01:24:58;100114.72;;;23.01;46.33
62592;BME280;48659;41.622;2.276;2022-07-10T01:27:25;100108.21;;;23.42;45.21
62592;BME280;48659;41.622;2.276;2022-07-10T01:29:53;100112.74;;;23.90;44.84
62592;BME280;48659;41.622;2.276;2022-07-10T01:32:20;100110.03;;;23.15;45.95
62592;BME280;48659;41.622;2.276;2022-07-10T01:34:48;100108.63;;;22.67;47.51
62592;BME280;48659;41.622;2.276;2022-07-10T01:37:16;100104.06;;;23.57;46.03
62592;BME280;48659;41.622;2.276;2022-07-10T01:39:44;100104.48;;;24.14;44.25
62592;BME280;48659;41.622;2.276;2022-07-10T01:42:11;100101.74;;;24.82;42.61
62592;BME280;48659;41.622;2.276;2022-07-10T01:44:38;100100.03;;;24.81;42.84
62592;BME280;48659;41.622;2.276;2022-07-10T01:47:06;100099.19;;;24.68;42.26
62592;BME280;48659;41.622;2.276;2022-07-10T01:49:33;100099.41;;;24.85;41.92
62592;BME280;48659;41.622;2.276;2022-07-10T01:52:01;100093.20;;;24.57;41.22
62592;BME280;48659;41.622;2.276;2022-07-10T01:54:28;100090.14;;;25.22;41.29
62592;BME280;48659;41.622;2.276;2022-07-10T01:56:57;100092.28;;;24.89;41.75
62592;BME280;48659;41.622;2.276;2022-07-10T01:59:24;100093.01;;;24.45;41.86
62592;BME280;48659;41.622;2.276;2022-07-10T02:01:51;100085.23;;;25.28;41.18
62592;BME280;48659;41.622;2.276;2022-07-10T02:04:18;100085.84;;;25.18;40.97
62592;BME280;48659;41.622;2.276;2022-07-10T02:06:46;100083.58;;;25.83;39.98
62592;BME280;48659;41.622;2.276;2022-07-10T02:09:14;100084.74;;;25.62;39.17
62592;BME280;48659;41.622;2.276;2022-07-10T02:11:41;100086.78;;;24.81;42.21
62592;BME280;48659;41.622;2.276;2022-07-10T02:14:09;100085.76;;;23.80;42.01
62592;BME280;48659;41.622;2.276;2022-07-10T02:16:36;100084.39;;;24.99;41.82
62592;BME280;48659;41.622;2.276;2022-07-10T02:19:04;100088.19;;;23.29;44.10
62592;BME280;48659;41.622;2.276;2022-07-10T02:21:31;100084.12;;;22.53;45.80
62592;BME280;48659;41.622;2.276;2022-07-10T02:24:04;100087.82;;;22.65;46.25
62592;BME280;48659;41.622;2.276;2022-07-10T02:28:54;100084.58;;;22.57;45.58
62592;BME280;48659;41.622;2.276;2022-07-10T02:31:22;100090.69;;;21.59;47.77
62592;BME280;48659;41.622;2.276;2022-07-10T02:33:49;100085.35;;;23.29;45.27
62592;BME280;48659;41.622;2.276;2022-07-10T02:36:16;100086.38;;;24.13;43.77
62592;BME280;48659;41.622;2.276;2022-07-10T02:38:44;100084.03;;;23.16;45.41
62592;BME280;48659;41.622;2.276;2022-07-10T02:41:12;100089.66;;;21.52;49.48
62592;BME280;48659;41.622;2.276;2022-07-10T02:43:39;100089.66;;;20.55;50.71
62592;BME280;48659;41.622;2.276;2022-07-10T02:46:06;100087.20;;;22.05;48.42
62592;BME280;48659;41.622;2.276;2022-07-10T02:48:33;100083.19;;;21.76;48.46
62592;BME280;48659;41.622;2.276;2022-07-10T02:51:00;100083.69;;;20.63;51.44
62592;BME280;48659;41.622;2.276;2022-07-10T02:53:28;100085.74;;;21.73;48.74
62592;BME280;48659;41.622;2.276;2022-07-10T02:55:55;100088.60;;;22.11;47.83
62592;BME280;48659;41.622;2.276;2022-07-10T02:58:22;100081.24;;;23.02;45.68
62592;BME280;48659;41.622;2.276;2022-07-10T03:00:49;100079.53;;;23.25;45.38
62592;BME280;48659;41.622;2.276;2022-07-10T03:03:16;100074.26;;;22.37;45.50
62592;BME280;48659;41.622;2.276;2022-07-10T03:05:44;100080.27;;;23.53;44.95
62592;BME280;48659;41.622;2.276;2022-07-10T03:08:12;100080.50;;;23.55;43.83
62592;BME280;48659;41.622;2.276;2022-07-10T03:10:40;100086.84;;;24.24;42.64
62592;BME280;48659;41.622;2.276;2022-07-10T03:13:07;100085.85;;;24.48;42.12
62592;BME280;48659;41.622;2.276;2022-07-10T03:15:35;100082.72;;;23.41;43.39
62592;BME280;48659;41.622;2.276;2022-07-10T03:18:03;100079.79;;;23.73;43.28
62592;BME280;48659;41.622;2.276;2022-07-10T03:20:31;100075.87;;;23.38;43.77
62592;BME280;48659;41.622;2.276;2022-07-10T03:22:58;100071.46;;;23.57;43.46
62592;BME280;48659;41.622;2.276;2022-07-10T03:25:25;100072.37;;;22.13;45.40
62592;BME280;48659;41.622;2.276;2022-07-10T03:27:52;100071.07;;;23.89;42.63
62592;BME280;48659;41.622;2.276;2022-07-10T03:30:20;100077.45;;;23.56;41.89
62592;BME280;48659;41.622;2.276;2022-07-10T03:32:47;100078.95;;;22.86;43.74
62592;BME280;48659;41.622;2.276;2022-07-10T03:35:14;100076.16;;;23.19;43.69
62592;BME280;48659;41.622;2.276;2022-07-10T03:37:42;100072.66;;;23.18;43.31
62592;BME280;48659;41.622;2.276;2022-07-10T03:40:11;100070.64;;;23.44;42.90
62592;BME280;48659;41.622;2.276;2022-07-10T03:42:38;100072.22;;;23.56;43.50
62592;BME280;48659;41.622;2.276;2022-07-10T03:45:06;100072.88;;;23.90;42.51
62592;BME280;48659;41.622;2.276;2022-07-10T03:47:33;100070.72;;;23.80;41.42
62592;BME280;48659;41.622;2.276;2022-07-10T03:50:00;100068.19;;;23.70;41.58
62592;BME280;48659;41.622;2.276;2022-07-10T03:52:28;100067.94;;;23.76;41.87
62592;BME280;48659;41.622;2.276;2022-07-10T03:54:55;100065.71;;;24.86;40.24
62592;BME280;48659;41.622;2.276;2022-07-10T03:57:22;100071.25;;;24.65;40.51
62592;BME280;48659;41.622;2.276;2022-07-10T03:59:50;100068.83;;;25.11;39.82
62592;BME280;48659;41.622;2.276;2022-07-10T04:02:17;100066.55;;;24.42;39.66
62592;BME280;48659;41.622;2.276;2022-07-10T04:04:44;100067.23;;;24.73;40.25
62592;BME280;48659;41.622;2.276;2022-07-10T04:07:12;100062.20;;;24.46;40.33
62592;BME280;48659;41.622;2.276;2022-07-10T04:09:40;100059.90;;;24.68;40.54
62592;BME280;48659;41.622;2.276;2022-07-10T04:12:08;100057.49;;;24.54;40.81
62592;BME280;48659;41.622;2.276;2022-07-10T04:14:35;100055.15;;;24.77;40.16
62592;BME280;48659;41.622;2.276;2022-07-10T04:17:02;100052.72;;;24.60;40.42
62592;BME280;48659;41.622;2.276;2022-07-10T04:19:29;100054.34;;;24.19;41.49
62592;BME280;48659;41.622;2.276;2022-07-10T04:21:56;100052.98;;;24.30;41.04
62592;BME280;48659;41.622;2.276;2022-07-10T04:24:23;100054.18;;;23.98;40.80
62592;BME280;48659;41.622;2.276;2022-07-10T04:26:51;100056.03;;;24.66;40.88
62592;BME280;48659;41.622;2.276;2022-07-10T04:29:20;100050.83;;;24.77;39.51
62592;BME280;48659;41.622;2.276;2022-07-10T04:31:48;100044.57;;;25.47;39.18
62592;BME280;48659;41.622;2.276;2022-07-10T04:34:15;100051.12;;;23.54;41.23
62592;BME280;48659;41.622;2.276;2022-07-10T04:36:42;100049.77;;;22.23;44.97
62592;BME280;48659;41.622;2.276;2022-07-10T04:39:10;100049.34;;;24.22;41.49
62592;BME280;48659;41.622;2.276;2022-07-10T04:41:37;100051.78;;;24.90;40.35
62592;BME280;48659;41.622;2.276;2022-07-10T04:44:05;100050.78;;;24.42;40.78
62592;BME280;48659;41.622;2.276;2022-07-10T04:46:32;100051.50;;;24.23;41.18
62592;BME280;48659;41.622;2.276;2022-07-10T04:49:00;100049.31;;;24.86;40.62
62592;BME280;48659;41.622;2.276;2022-07-10T04:51:27;100046.23;;;23.77;40.77
62592;BME280;48659;41.622;2.276;2022-07-10T04:53:55;100046.58;;;24.54;40.75
62592;BME280;48659;41.622;2.276;2022-07-10T04:56:22;100048.14;;;22.61;43.61
62592;BME280;48659;41.622;2.276;2022-07-10T04:58:50;100050.82;;;24.40;41.81
62592;BME280;48659;41.622;2.276;2022-07-10T05:01:17;100052.28;;;21.43;45.24
62592;BME280;48659;41.622;2.276;2022-07-10T05:03:44;100053.66;;;24.16;42.01
62592;BME280;48659;41.622;2.276;2022-07-10T05:06:11;100054.58;;;23.65;41.89
62592;BME280;48659;41.622;2.276;2022-07-10T05:08:38;100053.20;;;23.69;42.65
62592;BME280;48659;41.622;2.276;2022-07-10T05:11:05;100054.41;;;24.24;40.99
62592;BME280;48659;41.622;2.276;2022-07-10T05:13:33;100043.04;;;25.02;39.38
62592;BME280;48659;41.622;2.276;2022-07-10T05:16:00;100044.53;;;25.19;38.40
62592;BME280;48659;41.622;2.276;2022-07-10T05:18:27;100042.75;;;24.66;38.89
62592;BME280;48659;41.622;2.276;2022-07-10T05:20:54;100043.66;;;25.36;38.76
62592;BME280;48659;41.622;2.276;2022-07-10T05:23:21;100045.09;;;25.45;38.56
62592;BME280;48659;41.622;2.276;2022-07-10T05:25:49;100051.28;;;23.08;42.94
62592;BME280;48659;41.622;2.276;2022-07-10T05:28:17;100053.63;;;23.50;41.36
62592;BME280;48659;41.622;2.276;2022-07-10T05:30:44;100049.78;;;23.55;42.48
62592;BME280;48659;41.622;2.276;2022-07-10T05:33:20;100052.41;;;23.24;41.60
62592;BME280;48659;41.622;2.276;2022-07-10T05:35:54;100052.19;;;23.66;41.19
62592;BME280;48659;41.622;2.276;2022-07-10T05:38:23;100049.48;;;23.53;41.72
62592;BME280;48659;41.622;2.276;2022-07-10T05:40:51;100051.58;;;24.45;39.55
62592;BME280;48659;41.622;2.276;2022-07-10T05:43:29;100045.23;;;24.95;38.19
62592;BME280;48659;41.622;2.276;2022-07-10T05:46:02;100045.41;;;25.23;37.96
62592;BME280;48659;41.622;2.276;2022-07-10T05:48:31;100046.27;;;25.40;37.75
62592;BME280;48659;41.622;2.276;2022-07-10T05:50:59;100042.31;;;26.87;35.32
62592;BME280;48659;41.622;2.276;2022-07-10T05:53:31;100043.72;;;26.86;35.52
62592;BME280;48659;41.622;2.276;2022-07-10T05:56:00;100038.22;;;27.58;34.43
62592;BME280;48659;41.622;2.276;2022-07-10T05:58:28;100040.71;;;25.97;35.44
62592;BME280;48659;41.622;2.276;2022-07-10T06:00:56;100041.72;;;26.23;35.34
62592;BME280;48659;41.622;2.276;2022-07-10T06:03:24;100042.73;;;27.04;34.39
62592;BME280;48659;41.622;2.276;2022-07-10T06:05:51;100042.60;;;29.34;31.76
62592;BME280;48659;41.622;2.276;2022-07-10T06:08:20;100044.34;;;28.27;31.20
62592;BME280;48659;41.622;2.276;2022-07-10T06:10:48;100041.07;;;29.44;30.67
62592;BME280;48659;41.622;2.276;2022-07-10T06:13:15;100043.46;;;28.75;31.13
62592;BME280;48659;41.622;2.276;2022-07-10T06:15:42;100043.29;;;29.41;30.78
62592;BME280;48659;41.622;2.276;2022-07-10T06:18:17;100048.95;;;28.88;31.83
62592;BME280;48659;41.622;2.276;2022-07-10T06:20:45;100050.16;;;28.03;32.50
62592;BME280;48659;41.622;2.276;2022-07-10T06:23:13;100056.46;;;25.50;36.17
62592;BME280;48659;41.622;2.276;2022-07-10T06:25:40;100052.93;;;24.33;38.26
62592;BME280;48659;41.622;2.276;2022-07-10T06:28:08;100053.17;;;25.67;37.26
62592;BME280;48659;41.622;2.276;2022-07-10T06:30:35;100054.57;;;26.46;35.71
62592;BME280;48659;41.622;2.276;2022-07-10T06:33:03;100054.81;;;27.19;34.86
62592;BME280;48659;41.622;2.276;2022-07-10T06:35:31;100054.20;;;26.81;35.29
62592;BME280;48659;41.622;2.276;2022-07-10T06:37:58;100057.67;;;25.92;36.38
62592;BME280;48659;41.622;2.276;2022-07-10T06:40:25;100058.15;;;25.18;37.28
62592;BME280;48659;41.622;2.276;2022-07-10T06:42:52;100059.98;;;26.36;35.82
62592;BME280;48659;41.622;2.276;2022-07-10T06:45:20;100056.67;;;26.97;34.15
62592;BME280;48659;41.622;2.276;2022-07-10T06:47:47;100056.78;;;27.80;33.31
62592;BME280;48659;41.622;2.276;2022-07-10T06:50:15;100056.84;;;28.57;31.53
62592;BME280;48659;41.622;2.276;2022-07-10T06:52:42;100051.25;;;30.01;29.83
62592;BME280;48659;41.622;2.276;2022-07-10T06:55:11;100048.45;;;30.86;28.44
62592;BME280;48659;41.622;2.276;2022-07-10T06:57:39;100047.22;;;31.50;27.38
62592;BME280;48659;41.622;2.276;2022-07-10T07:00:07;100048.01;;;31.44;26.82
62592;BME280;48659;41.622;2.276;2022-07-10T07:02:34;100048.45;;;31.98;26.53
62592;BME280;48659;41.622;2.276;2022-07-10T07:05:02;100051.88;;;32.20;26.10
62592;BME280;48659;41.622;2.276;2022-07-10T07:07:29;100049.02;;;31.63;26.78
62592;BME280;48659;41.622;2.276;2022-07-10T07:09:57;100051.93;;;31.89;26.52
62592;BME280;48659;41.622;2.276;2022-07-10T07:12:25;100054.39;;;30.66;27.82
62592;BME280;48659;41.622;2.276;2022-07-10T07:14:53;100049.12;;;32.14;26.37
62592;BME280;48659;41.622;2.276;2022-07-10T07:17:20;100049.87;;;32.44;25.46
62592;BME280;48659;41.622;2.276;2022-07-10T07:19:47;100046.20;;;31.70;25.98
62592;BME280;48659;41.622;2.276;2022-07-10T07:22:19;100042.29;;;31.86;25.61
62592;BME280;48659;41.622;2.276;2022-07-10T07:24:46;100045.28;;;31.89;25.60
62592;BME280;48659;41.622;2.276;2022-07-10T07:27:14;100045.42;;;32.28;25.17
62592;BME280;48659;41.622;2.276;2022-07-10T07:29:41;100044.11;;;32.41;25.01
62592;BME280;48659;41.622;2.276;2022-07-10T07:32:08;100043.62;;;32.79;25.00
62592;BME280;48659;41.622;2.276;2022-07-10T07:34:36;100042.98;;;32.95;24.90
62592;BME280;48659;41.622;2.276;2022-07-10T07:37:03;100038.76;;;32.86;25.24
62592;BME280;48659;41.622;2.276;2022-07-10T07:39:37;100036.25;;;32.33;24.80
62592;BME280;48659;41.622;2.276;2022-07-10T07:42:04;100034.36;;;32.47;24.50
62592;BME280;48659;41.622;2.276;2022-07-10T07:44:32;100036.18;;;32.65;24.56
62592;BME280;48659;41.622;2.276;2022-07-10T07:46:59;100031.50;;;32.07;24.39
62592;BME280;48659;41.622;2.276;2022-07-10T07:49:27;100032.45;;;32.32;24.62
62592;BME280;48659;41.622;2.276;2022-07-10T07:51:54;100030.72;;;31.80;25.29
62592;BME280;48659;41.622;2.276;2022-07-10T07:54:21;100028.91;;;32.13;24.84
62592;BME280;48659;41.622;2.276;2022-07-10T07:56:47;100029.81;;;31.75;25.23
62592;BME280;48659;41.622;2.276;2022-07-10T07:59:15;100030.13;;;32.05;24.49
62592;BME280;48659;41.622;2.276;2022-07-10T08:01:43;100029.44;;;32.50;24.52
62592;BME280;48659;41.622;2.276;2022-07-10T08:04:11;100026.83;;;31.64;25.65
62592;BME280;48659;41.622;2.276;2022-07-10T08:06:38;100024.46;;;31.52;24.47
62592;BME280;48659;41.622;2.276;2022-07-10T08:09:06;100024.91;;;32.86;23.33
62592;BME280;48659;41.622;2.276;2022-07-10T08:11:33;100021.46;;;31.91;23.90
62592;BME280;48659;41.622;2.276;2022-07-10T08:14:00;100023.36;;;32.42;23.78
62592;BME280;48659;41.622;2.276;2022-07-10T08:16:27;100023.84;;;30.54;25.50
62592;BME280;48659;41.622;2.276;2022-07-10T08:18:55;100017.76;;;31.64;23.98
62592;BME280;48659;41.622;2.276;2022-07-10T08:21:22;100017.36;;;32.43;23.34
62592;BME280;48659;41.622;2.276;2022-07-10T08:23:49;100010.59;;;31.96;23.50
62592;BME280;48659;41.622;2.276;2022-07-10T08:26:17;100013.69;;;29.93;25.14
62592;BME280;48659;41.622;2.276;2022-07-10T08:28:44;100011.72;;;30.90;24.17
62592;BME280;48659;41.622;2.276;2022-07-10T08:31:11;100008.77;;;32.12;23.01
62592;BME280;48659;41.622;2.276;2022-07-10T08:33:39;100010.63;;;32.48;22.48
62592;BME280;48659;41.622;2.276;2022-07-10T08:36:06;100007.03;;;31.58;22.69
62592;BME280;48659;41.622;2.276;2022-07-10T08:38:34;100008.44;;;32.12;22.10
62592;BME280;48659;41.622;2.276;2022-07-10T08:41:05;100005.25;;;31.05;23.07
62592;BME280;48659;41.622;2.276;2022-07-10T08:43:33;100005.55;;;28.37;25.04
62592;BME280;48659;41.622;2.276;2022-07-10T08:46:01;100005.21;;;29.33;26.12
62592;BME280;48659;41.622;2.276;2022-07-10T08:48:29;100005.49;;;29.66;25.30
62592;BME280;48659;41.622;2.276;2022-07-10T08:51:03;100000.73;;;30.47;24.67
62592;BME280;48659;41.622;2.276;2022-07-10T08:53:32;99998.67;;;29.96;24.14
62592;BME280;48659;41.622;2.276;2022-07-10T08:56:01;99992.99;;;31.04;25.07
62592;BME280;48659;41.622;2.276;2022-07-10T08:58:30;99989.19;;;30.52;24.12
62592;BME280;48659;41.622;2.276;2022-07-10T09:00:59;99987.75;;;30.58;24.13
62592;BME280;48659;41.622;2.276;2022-07-10T09:03:29;99986.86;;;30.29;24.79
62592;BME280;48659;41.622;2.276;2022-07-10T09:05:57;99985.13;;;30.36;24.22
62592;BME280;48659;41.622;2.276;2022-07-10T09:08:25;99988.05;;;30.16;24.00
62592;BME280;48659;41.622;2.276;2022-07-10T09:10:53;99988.47;;;28.85;25.38
62592;BME280;48659;41.622;2.276;2022-07-10T09:13:49;99987.84;;;29.74;24.55
62592;BME280;48659;41.622;2.276;2022-07-10T09:16:22;99981.68;;;29.29;24.98
62592;BME280;48659;41.622;2.276;2022-07-10T09:18:49;99986.07;;;30.85;23.22
62592;BME280;48659;41.622;2.276;2022-07-10T09:21:19;99982.48;;;30.08;23.22
62592;BME280;48659;41.622;2.276;2022-07-10T09:23:47;99981.99;;;30.49;22.73
62592;BME280;48659;41.622;2.276;2022-07-10T09:26:15;99986.90;;;30.49;22.81
62592;BME280;48659;41.622;2.276;2022-07-10T09:28:43;99976.09;;;31.40;21.58
62592;BME280;48659;41.622;2.276;2022-07-10T09:31:11;99972.70;;;30.62;22.10
62592;BME280;48659;41.622;2.276;2022-07-10T09:33:40;99974.00;;;30.96;22.06
62592;BME280;48659;41.622;2.276;2022-07-10T09:36:09;99969.35;;;31.75;20.93
62592;BME280;48659;41.622;2.276;2022-07-10T09:38:54;99965.79;;;31.69;21.11
62592;BME280;48659;41.622;2.276;2022-07-10T09:41:24;99967.56;;;29.95;22.35
62592;BME280;48659;41.622;2.276;2022-07-10T09:43:53;99966.20;;;31.53;21.04
62592;BME280;48659;41.622;2.276;2022-07-10T09:46:22;99968.26;;;29.82;21.81
62592;BME280;48659;41.622;2.276;2022-07-10T09:49:01;99963.66;;;31.23;20.81
62592;BME280;48659;41.622;2.276;2022-07-10T09:51:31;99958.88;;;30.21;21.85
62592;BME280;48659;41.622;2.276;2022-07-10T09:54:01;99967.80;;;30.11;21.56
62592;BME280;48659;41.622;2.276;2022-07-10T09:56:34;99968.55;;;29.98;21.63
62592;BME280;48659;41.622;2.276;2022-07-10T09:59:09;99957.25;;;30.84;20.36
62592;BME280;48659;41.622;2.276;2022-07-10T10:01:37;99961.25;;;30.27;21.14
62592;BME280;48659;41.622;2.276;2022-07-10T10:04:08;99962.65;;;30.92;21.00
62592;BME280;48659;41.622;2.276;2022-07-10T10:06:37;99955.34;;;31.95;20.36
62592;BME280;48659;41.622;2.276;2022-07-10T10:09:09;99950.17;;;31.40;20.72
62592;BME280;48659;41.622;2.276;2022-07-10T10:11:40;99949.23;;;31.83;20.10
62592;BME280;48659;41.622;2.276;2022-07-10T10:14:08;99944.40;;;30.19;21.47
62592;BME280;48659;41.622;2.276;2022-07-10T10:16:36;99944.74;;;30.71;21.75
62592;BME280;48659;41.622;2.276;2022-07-10T10:19:04;99942.73;;;31.17;20.80
62592;BME280;48659;41.622;2.276;2022-07-10T10:21:33;99942.43;;;31.34;20.82
62592;BME280;48659;41.622;2.276;2022-07-10T10:24:01;99933.05;;;31.06;21.29
62592;BME280;48659;41.622;2.276;2022-07-10T10:26:29;99938.71;;;31.91;20.14
62592;BME280;48659;41.622;2.276;2022-07-10T10:28:59;99934.28;;;32.27;19.54
62592;BME280;48659;41.622;2.276;2022-07-10T10:31:28;99929.33;;;30.92;20.05
62592;BME280;48659;41.622;2.276;2022-07-10T10:33:57;99925.21;;;31.69;20.05
62592;BME280;48659;41.622;2.276;2022-07-10T10:36:44;99924.83;;;31.57;20.41
62592;BME280;48659;41.622;2.276;2022-07-10T10:39:15;99914.88;;;30.91;20.80
62592;BME280;48659;41.622;2.276;2022-07-10T10:41:46;99917.33;;;30.53;21.21
62592;BME280;48659;41.622;2.276;2022-07-10T10:44:25;99914.05;;;31.83;19.81
62592;BME280;48659;41.622;2.276;2022-07-10T10:46:56;99917.38;;;31.97;19.90
62592;BME280;48659;41.622;2.276;2022-07-10T10:49:24;99913.01;;;30.31;21.22
62592;BME280;48659;41.622;2.276;2022-07-10T10:52:00;99909.87;;;30.26;20.66
62592;BME280;48659;41.622;2.276;2022-07-10T10:54:29;99910.98;;;32.66;19.17
62592;BME280;48659;41.622;2.276;2022-07-10T10:57:13;99902.31;;;33.01;18.57
62592;BME280;48659;41.622;2.276;2022-07-10T10:59:49;99900.98;;;31.70;19.72
62592;BME280;48659;41.622;2.276;2022-07-10T11:02:25;99901.22;;;31.47;19.46
62592;BME280;48659;41.622;2.276;2022-07-10T11:05:39;99899.86;;;32.46;19.22
62592;BME280;48659;41.622;2.276;2022-07-10T11:08:06;99895.56;;;30.88;20.29
62592;BME280;48659;41.622;2.276;2022-07-10T11:10:36;99902.02;;;31.72;19.62
62592;BME280;48659;41.622;2.276;2022-07-10T11:13:05;99895.83;;;31.28;19.61
62592;BME280;48659;41.622;2.276;2022-07-10T11:15:34;99897.49;;;31.55;19.75
62592;BME280;48659;41.622;2.276;2022-07-10T11:18:03;99893.22;;;31.75;19.51
62592;BME280;48659;41.622;2.276;2022-07-10T11:20:33;99891.46;;;32.14;18.63
62592;BME280;48659;41.622;2.276;2022-07-10T11:24:18;99890.99;;;33.20;18.43
62592;BME280;48659;41.622;2.276;2022-07-10T11:26:57;99896.06;;;31.59;19.85
62592;BME280;48659;41.622;2.276;2022-07-10T11:29:26;99901.05;;;31.32;19.73
62592;BME280;48659;41.622;2.276;2022-07-10T11:31:53;99891.76;;;32.67;18.91
62592;BME280;48659;41.622;2.276;2022-07-10T11:34:22;99894.84;;;31.99;19.06
62592;BME280;48659;41.622;2.276;2022-07-10T11:36:49;99893.08;;;31.58;19.43
62592;BME280;48659;41.622;2.276;2022-07-10T11:39:16;99883.56;;;32.72;18.69
62592;BME280;48659;41.622;2.276;2022-07-10T11:41:44;99884.91;;;32.59;18.48
62592;BME280;48659;41.622;2.276;2022-07-10T11:44:19;99887.45;;;31.96;18.71
62592;BME280;48659;41.622;2.276;2022-07-10T11:46:47;99888.29;;;32.78;18.23
62592;BME280;48659;41.622;2.276;2022-07-10T11:49:16;99884.94;;;32.75;17.88
62592;BME280;48659;41.622;2.276;2022-07-10T11:51:44;99880.91;;;33.06;18.39
62592;BME280;48659;41.622;2.276;2022-07-10T11:54:13;99885.26;;;33.20;18.27
62592;BME280;48659;41.622;2.276;2022-07-10T11:56:45;99885.77;;;33.25;17.91
62592;BME280;48659;41.622;2.276;2022-07-10T11:59:14;99889.00;;;31.86;19.16
62592;BME280;48659;41.622;2.276;2022-07-10T12:01:44;99884.48;;;32.94;18.40
62592;BME280;48659;41.622;2.276;2022-07-10T12:04:13;99880.74;;;32.84;18.52
62592;BME280;48659;41.622;2.276;2022-07-10T12:06:42;99887.05;;;32.52;19.28
62592;BME280;48659;41.622;2.276;2022-07-10T12:09:11;99883.85;;;32.88;19.10
62592;BME280;48659;41.622;2.276;2022-07-10T12:11:40;99890.48;;;31.67;19.59
62592;BME280;48659;41.622;2.276;2022-07-10T12:14:11;99884.34;;;33.14;18.96
62592;BME280;48659;41.622;2.276;2022-07-10T12:16:38;99884.56;;;33.36;18.62
62592;BME280;48659;41.622;2.276;2022-07-10T12:19:07;99885.49;;;32.79;19.36
62592;BME280;48659;41.622;2.276;2022-07-10T12:21:34;99885.91;;;32.20;20.21
62592;BME280;48659;41.622;2.276;2022-07-10T12:24:02;99889.51;;;31.71;20.58
62592;BME280;48659;41.622;2.276;2022-07-10T12:26:33;99885.05;;;32.05;19.93
62592;BME280;48659;41.622;2.276;2022-07-10T12:29:01;99884.32;;;29.70;22.46
62592;BME280;48659;41.622;2.276;2022-07-10T12:31:31;99884.52;;;30.43;22.20
62592;BME280;48659;41.622;2.276;2022-07-10T12:34:00;99881.35;;;31.24;21.78
62592;BME280;48659;41.622;2.276;2022-07-10T12:36:41;99883.94;;;31.75;21.49
62592;BME280;48659;41.622;2.276;2022-07-10T12:39:09;99878.54;;;32.46;20.96
62592;BME280;48659;41.622;2.276;2022-07-10T12:41:54;99878.95;;;29.69;24.24
62592;BME280;48659;41.622;2.276;2022-07-10T12:44:31;99878.83;;;31.00;22.73
62592;BME280;48659;41.622;2.276;2022-07-10T12:47:00;99880.79;;;30.53;21.96
62592;BME280;48659;41.622;2.276;2022-07-10T12:49:28;99885.25;;;31.57;21.12
62592;BME280;48659;41.622;2.276;2022-07-10T12:51:56;99884.59;;;31.12;21.40
62592;BME280;48659;41.622;2.276;2022-07-10T12:54:31;99881.04;;;29.79;22.87
62592;BME280;48659;41.622;2.276;2022-07-10T12:56:59;99879.21;;;30.38;23.35
62592;BME280;48659;41.622;2.276;2022-07-10T12:59:27;99881.50;;;30.15;23.08
62592;BME280;48659;41.622;2.276;2022-07-10T13:01:55;99883.16;;;31.15;22.24
62592;BME280;48659;41.622;2.276;2022-07-10T13:04:24;99881.32;;;31.87;21.73